Latest Weather Observations for Moruya Airport

IDN60901

Issued at 6:31 am EST Sunday 31 July 2016 (issued every 10 minutes, with the page automatically refreshed every 10 minutes)

About weather observations | Map of Canberra area stations | Latest observations for Canberra area | Other Formats
Station Details ID: 069148 Name: MORUYA AIRPORT AWS Lat: -35.90 Lon: 150.14 Height: 4.0 m
Data from the previous 72 hours. | See also: Recent months at Moruya Airport
Date/Time
EST
Temp
°C
App
Temp
°C
Dew
Point
°C
Rel
Hum
%
Delta-T
°C
Wind Press
QNH
hPa
Press
MSL
hPa
Rain since
9am
mm
Dir  Spd
km/h
Gust
km/h
Spd
kts
Gust
kts
31/06:30am 10.0 9.6 8.1 88 0.9 CALM 0 0 0 0 1014.3 1014.3 0.4
31/06:00am 10.3 8.7 8.1 86 1.1 NNW 6 9 3 5 1014.6 1014.6 0.4
31/05:30am 11.9 9.8 6.8 71 2.4 WSW 7 11 4 6 1014.0 1014.0 0.2
31/05:00am 11.4 8.8 6.3 71 2.4 W 9 13 5 7 1013.6 1013.6 0.0
31/04:30am 11.0 8.8 5.3 68 2.6 SSE 6 11 3 6 1013.5 1013.5 0.0
31/04:00am 10.7 7.2 5.3 69 2.5 NW 13 15 7 8 1013.2 1013.2 0.0
31/03:30am 10.4 7.7 5.4 71 2.3 NW 9 13 5 7 1013.5 1013.5 0.0
31/03:00am 10.5 8.1 5.1 69 2.4 NNW 7 9 4 5 1014.1 1014.1 0.0
31/02:30am 10.6 8.1 4.7 67 2.7 NNW 7 11 4 6 1014.2 1014.2 0.0
31/02:00am 11.6 8.6 4.3 61 3.3 NNW 9 13 5 7 1014.6 1014.6 0.0
31/01:30am 12.3 9.4 4.8 60 3.4 NW 9 17 5 9 1015.1 1015.1 0.0
31/01:00am 7.8 5.6 6.1 89 0.8 N 7 11 4 6 1015.5 1015.5 0.0
31/12:30am 7.3 5.2 5.6 89 0.8 NNW 6 9 3 5 1015.4 1015.4 0.0
31/12:00am 7.1 5.7 5.4 89 0.8 NNE 2 9 1 5 1015.7 1015.7 0.0
 
Date/Time
EST
Temp
°C
App
Temp
°C
Dew
Point
°C
Rel
Hum
%
Delta-T
°C
Wind Press
QNH
hPa
Press
MSL
hPa
Rain since
9am
mm
Dir  Spd
km/h
Gust
km/h
Spd
kts
Gust
kts
30/11:30pm 7.0 5.6 5.3 89 0.8 W 2 9 1 5 1016.2 1016.2 0.0
30/11:00pm 6.8 5.6 4.8 87 0.9 CALM 0 0 0 0 1016.4 1016.4 0.0
30/10:30pm 7.3 5.1 5.3 87 0.9 WNW 6 9 3 5 1016.9 1016.9 0.0
30/10:00pm 6.8 4.8 4.6 86 1.0 SW 4 7 2 4 1017.3 1017.3 0.0
30/09:30pm 6.5 3.9 4.2 85 1.0 WNW 7 9 4 5 1017.7 1017.7 0.0
30/09:00pm 7.3 4.9 4.1 80 1.4 NW 6 9 3 5 1017.9 1017.9 0.0
30/08:30pm 9.2 6.8 4.4 72 2.1 WNW 6 9 3 5 1018.1 1018.1 0.0
30/08:00pm 11.0 7.4 4.9 66 2.8 N 13 17 7 9 1017.9 1017.9 0.0
30/07:30pm 11.4 8.2 5.1 65 2.9 N 11 15 6 8 1018.1 1018.1 0.0
30/07:00pm 11.8 8.6 5.0 63 3.1 N 11 17 6 9 1018.1 1018.1 0.0
30/06:30pm 11.8 8.2 4.8 62 3.2 N 13 17 7 9 1018.0 1018.0 0.0
30/06:00pm 11.9 8.6 4.6 61 3.3 N 11 17 6 9 1018.1 1018.1 0.0
30/05:30pm 11.6 8.2 4.1 60 3.4 N 11 15 6 8 1018.0 1018.0 0.0
30/05:00pm 14.2 9.4 5.6 56 4.1 NNE 20 26 11 14 1017.9 1017.9 0.0
30/04:30pm 14.6 10.0 5.4 54 4.3 NE 19 26 10 14 1018.2 1018.2 0.0
30/04:00pm 15.1 10.9 5.6 53 4.5 NE 17 22 9 12 1018.7 1018.7 0.0
30/03:30pm 15.4 10.5 5.3 51 4.8 NE 20 24 11 13 1018.9 1018.9 0.0
30/03:00pm 16.0 11.2 5.6 50 5.0 ENE 20 24 11 13 1018.9 1018.9 0.0
30/02:30pm 16.2 12.1 6.1 51 4.9 ENE 17 20 9 11 1019.3 1019.3 0.0
30/02:00pm 16.0 11.5 4.1 45 5.5 ENE 17 19 9 10 1019.5 1019.5 0.0
30/01:30pm 16.4 12.9 7.1 54 4.6 ENE 15 19 8 10 1019.9 1019.9 0.0
30/01:00pm 16.1 12.6 7.1 55 4.4 ENE 15 17 8 9 1020.5 1020.5 0.0
30/12:30pm 15.6 12.5 5.5 51 4.8 ENE 11 15 6 8 1021.0 1021.0 0.0
30/12:00pm 15.6 12.7 6.3 54 4.5 ENE 11 13 6 7 1021.4 1021.4 0.0
30/11:30am 15.5 12.3 6.8 56 4.3 E 13 15 7 8 1021.9 1021.9 0.0
30/11:00am 16.3 13.2 3.4 42 5.9 WSW 9 17 5 9 1022.3 1022.3 0.0
30/10:30am 15.3 12.5 5.2 51 4.8 W 9 13 5 7 1022.6 1022.6 0.0
30/10:00am 14.5 11.6 4.8 52 4.5 WSW 9 13 5 7 1022.8 1022.8 0.0
30/09:30am 13.0 10.1 4.7 57 3.8 W 9 13 5 7 1023.0 1023.0 0.0
30/09:00am 11.8 8.5 4.3 60 3.4 W 11 15 6 8 1023.0 1023.0 0.0
30/08:30am 10.0 7.0 4.2 67 2.6 W 9 15 5 8 1023.0 1023.0 0.0
30/08:00am 8.0 4.9 3.7 74 1.8 WSW 9 13 5 7 1022.8 1022.8 0.0
30/07:30am 7.6 4.6 4.2 79 1.5 WSW 9 13 5 7 1022.7 1022.7 0.0
30/07:00am 6.6 3.9 3.6 81 1.3 WSW 7 11 4 6 1022.3 1022.3 0.0
30/06:30am 7.5 4.4 3.7 77 1.6 WSW 9 13 5 7 1022.1 1022.1 0.0
30/06:00am 6.8 3.2 3.2 78 1.5 WSW 11 15 6 8 1021.9 1021.9 0.0
30/05:30am 7.6 4.1 3.6 76 1.7 W 11 17 6 9 1021.5 1021.5 0.0
30/05:00am 7.9 4.5 3.9 76 1.7 WSW 11 15 6 8 1021.1 1021.1 0.0
30/04:30am 7.5 4.1 3.9 78 1.5 WSW 11 15 6 8 1021.0 1021.0 0.0
30/04:00am 7.1 3.6 3.7 79 1.4 WSW 11 15 6 8 1020.9 1020.9 0.0
30/03:30am 6.6 3.5 3.6 81 1.3 W 9 13 5 7 1020.7 1020.7 0.0
30/03:00am 5.7 2.7 4.3 91 0.6 W 9 15 5 8 1020.4 1020.4 0.0
30/02:30am 5.0 3.3 3.8 92 0.5 WSW 2 7 1 4 1020.6 1020.6 0.0
30/02:00am 4.9 2.7 3.4 90 0.6 WSW 4 6 2 3 1020.4 1020.4 0.0
30/01:30am 5.4 3.3 3.7 89 0.7 WSW 4 7 2 4 1020.6 1020.6 0.0
30/01:00am 6.0 3.5 4.8 92 0.5 WSW 7 11 4 6 1020.6 1020.6 0.0
30/12:30am 5.4 3.4 4.2 92 0.5 W 4 7 2 4 1020.5 1020.5 0.0
30/12:00am 5.6 3.2 4.2 91 0.6 WSW 6 9 3 5 1020.6 1020.6 0.0
 
Date/Time
EST
Temp
°C
App
Temp
°C
Dew
Point
°C
Rel
Hum
%
Delta-T
°C
Wind Press
QNH
hPa
Press
MSL
hPa
Rain since
9am
mm
Dir  Spd
km/h
Gust
km/h
Spd
kts
Gust
kts
29/11:30pm 6.0 4.0 4.5 90 0.6 W 4 7 2 4 1020.6 1020.6 0.0
29/11:00pm 7.1 6.1 5.6 90 0.7 CALM 0 0 0 0 1020.4 1020.4 0.0
29/10:30pm 7.1 6.0 5.3 88 0.8 CALM 0 0 0 0 1020.1 1020.1 0.0
29/10:00pm 8.0 6.3 6.0 87 0.9 N 4 6 2 3 1019.8 1019.8 0.0
29/09:30pm 8.5 7.3 6.6 88 0.9 W 2 6 1 3 1019.9 1019.9 0.0
29/09:00pm 9.1 7.7 7.4 89 0.8 ENE 4 7 2 4 1019.6 1019.6 0.0
29/08:30pm 9.3 8.7 7.4 88 0.9 CALM 0 0 0 0 1019.4 1019.4 0.0
29/08:00pm 9.4 8.4 7.3 87 1.0 WSW 2 7 1 4 1019.1 1019.1 0.0
29/07:30pm 9.3 8.2 6.9 85 1.1 WNW 2 7 1 4 1018.6 1018.6 0.0
29/07:00pm 9.7 7.4 7.3 85 1.1 SW 9 11 5 6 1018.3 1018.3 0.0
29/06:30pm 9.9 9.3 7.3 84 1.2 CALM 0 0 0 0 1017.8 1017.8 0.0
29/06:00pm 10.6 8.7 7.7 82 1.4 NW 7 9 4 5 1017.5 1017.5 0.0
29/05:30pm 11.4 9.8 7.9 79 1.7 NW 6 7 3 4 1017.5 1017.5 0.0
29/05:00pm 12.5 10.6 6.8 68 2.7 SSE 6 9 3 5 1017.1 1017.1 0.0
29/04:30pm 14.4 12.4 7.2 62 3.5 SE 7 9 4 5 1016.8 1016.8 0.0
29/04:00pm 15.5 13.7 8.0 61 3.8 ESE 7 9 4 5 1016.8 1016.8 0.0
29/03:30pm 15.8 13.8 7.3 57 4.2 E 7 9 4 5 1016.6 1016.6 0.0
29/03:00pm 16.7 13.7 2.0 37 6.6 ENE 7 9 4 5 1016.5 1016.5 0.0
29/02:30pm 16.4 13.3 5.7 49 5.2 ENE 11 13 6 7 1016.5 1016.5 0.0
29/02:00pm 16.0 12.7 6.2 52 4.7 NE 13 15 7 8 1016.4 1016.4 0.0
29/01:30pm 15.8 12.4 6.0 52 4.7 ENE 13 15 7 8 1016.9 1016.9 0.0
29/01:00pm 16.4 13.3 5.4 48 5.3 E 11 17 6 9 1017.2 1017.2 0.0
29/12:30pm 18.1 14.7 1.6 33 7.4 W 9 11 5 6 1017.7 1017.7 0.0
29/12:00pm 17.1 13.2 1.1 34 7.0 WSW 11 19 6 10 1018.4 1018.4 0.0
29/11:30am 16.4 12.5 1.3 36 6.6 W 11 15 6 8 1019.0 1019.0 0.0
29/11:00am 15.2 11.4 1.7 40 5.9 NW 11 17 6 9 1019.4 1019.4 0.0
29/10:30am 13.6 10.1 1.3 43 5.3 W 9 17 5 9 1019.8 1019.8 0.0
29/10:00am 11.5 9.4 4.0 60 3.3 SE 4 9 2 5 1020.1 1020.1 0.0
29/09:30am 10.4 8.6 3.2 61 3.1 E 2 6 1 3 1020.3 1020.3 0.0
29/09:00am 8.7 5.9 2.9 67 2.5 N 7 9 4 5 1020.5 1020.5 0.0
29/08:30am 6.6 4.9 5.9 95 0.3 N 4 6 2 3 1020.6 1020.6 0.0
29/08:00am 3.2 0.5 2.5 95 0.3 NNE 6 9 3 5 1020.7 1020.7 0.0
29/07:30am 1.2 -0.7 0.5 95 0.3 CALM 0 4 0 2 1020.8 1020.8 0.0
29/07:00am 0.2 -3.6 -0.5 95 0.3 SW 9 11 5 6 1020.8 1020.8 0.0
29/06:30am 0.3 -3.5 -0.4 95 0.2 NNW 9 11 5 6 1020.5 1020.5 0.0
29/06:28am -0.1 -3.9 -0.8 95 0.2 N 9 11 5 6 1020.5 1020.5 0.0
29/06:10am 0.1 -2.7 -0.6 95 0.3 W 4 7 2 4 1020.7 1020.7 0.0
29/06:00am -0.1 -3.3 -0.8 95 0.2 NW 6 7 3 4 1020.8 1020.8 0.0
29/05:30am 0.1 -2.3 -0.6 95 0.3 N 2 6 1 3 1020.7 1020.7 0.0
29/05:20am -1.0 -4.9 -1.8 94 0.2 N 9 13 5 7 1020.8 1020.8 0.0
29/05:00am 0.3 -1.8 -0.5 94 0.3 CALM 0 0 0 0 1020.5 1020.5 0.0
29/04:57am 0.3 -1.7 -0.4 95 0.2 CALM 0 0 0 0 1020.5 1020.5 0.0
29/04:30am 0.6 -1.8 -0.3 94 0.3 WNW 2 9 1 5 1020.2 1020.2 0.0
29/04:00am 1.5 -1.7 0.8 95 0.3 WNW 7 11 4 6 1020.4 1020.4 0.0
29/03:30am 0.3 -3.1 -0.5 94 0.3 W 7 9 4 5 1020.6 1020.6 0.0
29/03:00am 1.2 -1.5 0.3 94 0.3 WNW 4 7 2 4 1020.8 1020.8 0.0
29/02:38am 2.2 -0.7 1.3 94 0.3 NW 6 9 3 5 1021.0 1021.0 0.0
29/02:30am 2.0 -0.2 1.1 94 0.3 NW 2 9 1 5 1021.1 1021.1 0.0
29/02:19am 1.7 -0.6 0.7 93 0.4 NW 2 6 1 3 1021.2 1021.2 0.0
29/02:00am 2.3 -0.6 1.3 93 0.4 NW 6 7 3 4 1021.4 1021.4 0.0
29/01:30am 2.8 0.7 1.8 93 0.4 NNW 2 6 1 3 1021.3 1021.3 0.0
29/01:00am 2.4 -0.6 1.1 91 0.5 W 6 7 3 4 1021.5 1021.5 0.0
29/12:30am 2.9 0.0 1.4 90 0.6 WSW 6 7 3 4 1021.4 1021.4 0.0
29/12:00am 2.9 1.1 1.4 90 0.6 CALM 0 0 0 0 1021.3 1021.3 0.0
 
Date/Time
EST
Temp
°C
App
Temp
°C
Dew
Point
°C
Rel
Hum
%
Delta-T
°C
Wind Press
QNH
hPa
Press
MSL
hPa
Rain since
9am
mm
Dir  Spd
km/h
Gust
km/h
Spd
kts
Gust
kts
28/11:30pm 3.8 0.8 2.2 89 0.6 SW 7 9 4 5 1021.1 1021.1 0.0
28/11:00pm 4.6 3.2 3.3 91 0.5 CALM 0 0 0 0 1021.0 1021.0 0.0
28/10:30pm 4.5 1.8 2.8 89 0.7 NNW 6 7 3 4 1020.8 1020.8 0.0
28/10:00pm 5.2 3.6 2.7 84 1.0 CALM 0 0 0 0 1020.9 1020.9 0.0
28/09:30pm 6.2 4.7 3.0 80 1.3 CALM 0 0 0 0 1020.9 1020.9 0.0
28/09:00pm 6.9 4.2 2.8 75 1.7 WSW 6 9 3 5 1021.0 1021.0 0.0
28/08:30pm 9.6 6.3 4.6 71 2.2 WSW 11 17 6 9 1020.7 1020.7 0.0
28/08:00pm 7.2 5.0 6.0 92 0.5 W 7 11 4 6 1020.6 1020.6 0.0
28/07:30pm 7.8 5.7 6.6 92 0.6 W 7 9 4 5 1020.5 1020.5 0.0
28/07:00pm 8.5 6.7 7.1 91 0.7 W 6 7 3 4 1020.4 1020.4 0.0
28/06:30pm 9.6 7.9 8.2 91 0.7 WSW 7 9 4 5 1020.0 1020.0 0.0
28/06:00pm 10.4 8.8 8.8 90 0.8 WSW 7 9 4 5 1019.4 1019.4 0.0
28/05:30pm 11.2 10.5 8.4 83 1.4 S 2 6 1 3 1019.1 1019.1 0.0
28/05:00pm 13.9 13.4 9.3 74 2.3 E 2 7 1 4 1019.0 1019.0 0.0
28/04:30pm 15.4 13.3 9.7 69 3.0 NE 11 13 6 7 1018.8 1018.8 0.0
28/04:00pm 15.8 13.3 9.7 67 3.2 NE 13 17 7 9 1018.7 1018.7 0.0
28/03:30pm 16.1 12.5 8.3 60 4.0 NE 17 20 9 11 1018.6 1018.6 0.0
28/03:00pm 16.3 13.4 9.5 64 3.5 ENE 15 17 8 9 1018.7 1018.7 0.0
28/02:30pm 16.6 13.5 8.8 60 4.0 NE 15 19 8 10 1018.8 1018.8 0.0
28/02:00pm 16.4 12.9 8.9 61 3.8 ENE 17 19 9 10 1019.0 1019.0 0.0
28/01:30pm 16.6 13.6 7.5 55 4.6 ENE 13 17 7 9 1019.2 1019.2 0.0
28/01:00pm 16.3 13.1 7.0 54 4.6 ENE 13 15 7 8 1019.6 1019.6 0.0
28/12:30pm 16.9 13.8 5.5 47 5.5 ENE 11 15 6 8 1020.0 1020.0 0.0
28/12:00pm 17.6 14.7 2.8 37 6.8 N 7 11 4 6 1020.6 1020.6 0.0
28/11:30am 16.2 13.0 4.9 47 5.3 NNE 11 17 6 9 1021.2 1021.2 0.0
28/11:00am 15.2 12.5 5.4 52 4.6 ESE 9 11 5 6 1021.8 1021.8 0.0
28/10:30am 15.0 12.2 5.0 51 4.7 NNW 9 13 5 7 1021.9 1021.9 0.0
28/10:00am 14.0 12.0 4.3 52 4.4 WNW 4 9 2 5 1022.0 1022.0 0.0
28/09:30am 12.8 10.3 4.5 57 3.8 N 7 9 4 5 1021.7 1021.7 0.0
28/09:00am 10.2 8.3 5.0 70 2.3 WNW 4 6 2 3 1021.9 1021.9 0.0
28/08:30am 8.7 7.5 6.3 85 1.1 N 2 7 1 4 1022.1 1022.1 0.0
28/08:00am 5.4 4.2 4.5 94 0.4 CALM 0 6 0 3 1022.1 1022.1 0.0
28/07:30am 3.4 0.7 2.5 94 0.4 W 6 7 3 4 1021.8 1021.8 0.0
28/07:00am 2.7 0.6 1.8 94 0.3 S 2 9 1 5 1021.6 1021.6 0.0

Latest Capital City Observations: Canberra | Sydney | Melbourne | Brisbane | Adelaide | Perth | Hobart | Darwin

Other Formats:

Comma delimited format used in spreadsheet applications
http://www.bom.gov.au/fwo/IDN60903/IDN60903.95937.axf

JavaScript Object Notation format (JSON) in row-major order
http://www.bom.gov.au/fwo/IDN60903/IDN60903.95937.json